createdAt,value
2023-03-26T00:01:39.357Z,2.17
2023-03-26T00:04:07.627Z,2.30
2023-03-26T00:06:39.635Z,1.95
2023-03-26T00:09:09.824Z,2.17
2023-03-26T00:11:37.061Z,2.17
2023-03-26T00:14:05.743Z,2.55
2023-03-26T00:16:33.683Z,2.75
2023-03-26T00:19:01.879Z,2.88
2023-03-26T00:21:30.662Z,2.92
2023-03-26T00:24:00.313Z,2.95
2023-03-26T00:26:29.736Z,3.92
2023-03-26T00:28:58.316Z,3.60
2023-03-26T00:31:25.509Z,3.70
2023-03-26T00:33:56.118Z,3.88
2023-03-26T00:36:28.121Z,4.00
2023-03-26T00:38:56.014Z,4.05
2023-03-26T00:41:31.298Z,4.82
2023-03-26T00:44:00.177Z,5.10
2023-03-26T00:46:29.690Z,4.90
2023-03-26T00:49:00.158Z,5.32
2023-03-26T00:51:28.789Z,4.38
2023-03-26T00:53:56.835Z,4.90
2023-03-26T00:56:24.237Z,4.57
2023-03-26T00:58:51.281Z,4.80
2023-03-26T01:01:27.931Z,4.53
2023-03-26T01:04:08.823Z,4.40
2023-03-26T01:06:42.355Z,5.00
2023-03-26T01:09:16.178Z,4.93
2023-03-26T01:11:43.694Z,4.55
2023-03-26T01:14:14.757Z,4.72
2023-03-26T01:16:52.705Z,5.60
2023-03-26T01:19:47.585Z,6.43
2023-03-26T01:22:26.244Z,6.05
2023-03-26T01:24:54.228Z,5.40
2023-03-26T01:27:27.018Z,5.97
2023-03-26T01:29:58.998Z,7.00
2023-03-26T01:32:52.873Z,6.60
2023-03-26T01:35:30.718Z,7.03
2023-03-26T01:38:00.710Z,6.80
2023-03-26T01:40:31.993Z,7.57
2023-03-26T01:43:03.972Z,7.20
2023-03-26T01:45:36.745Z,7.75
2023-03-26T01:48:05.277Z,7.90
2023-03-26T01:50:32.474Z,8.57
2023-03-26T01:52:59.705Z,7.60
2023-03-26T01:55:54.008Z,7.50
2023-03-26T01:58:53.279Z,8.02
2023-03-26T02:01:44.856Z,7.68
2023-03-26T02:04:24.055Z,7.15
2023-03-26T02:07:05.868Z,7.38
2023-03-26T02:09:39.475Z,7.03
2023-03-26T02:12:07.191Z,6.53
2023-03-26T02:14:34.541Z,6.47
2023-03-26T02:17:01.578Z,5.90
2023-03-26T02:19:29.978Z,5.18
2023-03-26T02:21:59.998Z,5.20
2023-03-26T02:24:29.269Z,5.38
2023-03-26T02:27:02.328Z,4.05
2023-03-26T02:29:29.869Z,3.67
2023-03-26T02:31:57.439Z,3.03
2023-03-26T02:34:24.516Z,2.70
2023-03-26T02:36:53.658Z,2.38
2023-03-26T02:39:21.066Z,2.45
2023-03-26T02:42:02.735Z,2.00
2023-03-26T02:44:32.635Z,1.73
2023-03-26T02:46:59.750Z,1.38
2023-03-26T02:49:41.758Z,1.30
2023-03-26T02:52:09.672Z,1.70
2023-03-26T02:54:37.181Z,1.52
2023-03-26T02:57:07.172Z,1.58
2023-03-26T03:00:09.186Z,1.73
2023-03-26T03:02:38.967Z,1.65
2023-03-26T03:05:26.599Z,1.38
2023-03-26T03:08:14.022Z,1.00
2023-03-26T03:11:14.783Z,1.15
2023-03-26T03:13:45.143Z,1.33
2023-03-26T03:16:15.952Z,1.20
2023-03-26T03:18:43.002Z,1.08
2023-03-26T03:21:10.523Z,1.27
2023-03-26T03:23:37.548Z,1.58
2023-03-26T03:26:15.761Z,1.08
2023-03-26T03:28:51.215Z,1.10
2023-03-26T03:31:18.590Z,1.23
2023-03-26T03:33:46.643Z,1.20
2023-03-26T03:36:21.015Z,0.93
2023-03-26T03:39:02.373Z,1.35
2023-03-26T03:41:30.191Z,1.27
2023-03-26T03:43:59.935Z,1.25
2023-03-26T03:46:30.006Z,1.00
2023-03-26T03:48:57.094Z,0.95
2023-03-26T03:51:32.427Z,1.25
2023-03-26T03:54:03.127Z,1.38
2023-03-26T03:57:03.609Z,1.30
2023-03-26T03:59:38.826Z,1.30
2023-03-26T04:02:26.431Z,1.17
2023-03-26T04:04:58.274Z,1.15
2023-03-26T04:07:26.445Z,1.20
2023-03-26T04:10:07.264Z,1.17
2023-03-26T04:12:52.638Z,1.25
2023-03-26T04:15:27.127Z,1.30
2023-03-26T04:17:54.324Z,1.42
2023-03-26T04:20:22.184Z,1.38
2023-03-26T04:22:51.094Z,1.50
2023-03-26T04:25:21.570Z,1.40
2023-03-26T04:27:58.548Z,1.30
2023-03-26T04:31:03.979Z,1.40
2023-03-26T04:33:41.588Z,1.20
2023-03-26T04:36:10.381Z,1.50
2023-03-26T04:38:42.723Z,1.25
2023-03-26T04:41:14.811Z,1.30
2023-03-26T04:43:54.253Z,1.27
2023-03-26T04:46:36.585Z,1.20
2023-03-26T04:49:12.433Z,1.35
2023-03-26T04:51:42.063Z,0.98
2023-03-26T04:54:32.053Z,1.48
2023-03-26T04:57:08.056Z,1.35
2023-03-26T04:59:46.261Z,1.30
2023-03-26T05:02:15.649Z,1.50
2023-03-26T05:04:53.760Z,1.50
2023-03-26T05:07:24.212Z,1.55
2023-03-26T05:09:54.860Z,1.58
2023-03-26T05:12:41.695Z,1.15
2023-03-26T05:15:14.343Z,1.48
2023-03-26T05:17:50.404Z,1.58
2023-03-26T05:20:30.005Z,1.27
2023-03-26T05:22:57.511Z,1.40
2023-03-26T05:25:35.130Z,1.60
2023-03-26T05:28:04.751Z,1.50
2023-03-26T05:30:43.642Z,1.33
2023-03-26T05:33:11.135Z,2.00
2023-03-26T05:36:07.129Z,1.70
2023-03-26T05:38:34.368Z,1.60
2023-03-26T05:41:06.955Z,1.48
2023-03-26T05:43:36.425Z,1.10
2023-03-26T05:46:09.822Z,1.17
2023-03-26T05:48:38.439Z,0.88
2023-03-26T05:51:06.652Z,1.33
2023-03-26T05:53:34.204Z,1.33
2023-03-26T05:56:07.687Z,1.10
2023-03-26T05:58:53.276Z,1.13
2023-03-26T06:01:39.057Z,1.13
2023-03-26T06:04:28.652Z,1.40
2023-03-26T06:07:16.906Z,1.33
2023-03-26T06:09:50.035Z,1.23
2023-03-26T06:12:17.652Z,1.40
2023-03-26T06:14:45.838Z,1.70
2023-03-26T06:17:33.104Z,1.65
2023-03-26T06:20:20.461Z,1.50
2023-03-26T06:22:50.042Z,1.42
2023-03-26T06:25:20.454Z,1.17
2023-03-26T06:28:06.143Z,1.50
2023-03-26T06:30:53.875Z,1.50
2023-03-26T06:33:48.902Z,1.45
2023-03-26T06:36:16.642Z,1.30
2023-03-26T06:38:43.768Z,1.30
2023-03-26T06:41:11.093Z,1.60
2023-03-26T06:44:11.398Z,1.40
2023-03-26T06:46:58.644Z,1.40
2023-03-26T06:49:45.798Z,1.58
2023-03-26T06:52:38.748Z,1.40
2023-03-26T06:55:28.315Z,1.48
2023-03-26T06:58:22.026Z,1.90
2023-03-26T07:01:07.701Z,1.52
2023-03-26T07:03:53.088Z,1.40
2023-03-26T07:06:52.969Z,1.13
2023-03-26T07:09:38.834Z,1.75
2023-03-26T07:12:24.227Z,1.52
2023-03-26T07:14:51.538Z,1.38
2023-03-26T07:17:37.477Z,1.55
2023-03-26T07:20:13.102Z,1.60
2023-03-26T07:22:42.283Z,1.70
2023-03-26T07:25:17.159Z,1.50
2023-03-26T07:27:52.060Z,1.42
2023-03-26T07:30:55.645Z,1.60
2023-03-26T07:33:51.703Z,1.65
2023-03-26T07:36:49.352Z,1.80
2023-03-26T07:40:06.212Z,1.55
2023-03-26T07:43:21.396Z,1.80
2023-03-26T07:46:12.393Z,1.92
2023-03-26T07:48:51.978Z,2.22
2023-03-26T07:51:37.224Z,2.58
2023-03-26T07:54:16.915Z,2.45
2023-03-26T07:57:36.984Z,2.63
2023-03-26T08:00:35.324Z,3.60
2023-03-26T08:03:15.834Z,3.42
2023-03-26T08:06:27.157Z,2.70
2023-03-26T08:09:26.942Z,2.70
2023-03-26T08:12:18.311Z,3.08
2023-03-26T08:14:52.663Z,3.42
2023-03-26T08:17:45.357Z,2.30
2023-03-26T08:20:44.318Z,2.92
2023-03-26T08:23:38.361Z,2.72
2023-03-26T08:27:08.842Z,2.65
2023-03-26T08:29:50.100Z,2.25
2023-03-26T08:32:19.563Z,2.25
2023-03-26T08:34:46.923Z,2.28
2023-03-26T08:37:14.223Z,2.50
2023-03-26T08:39:42.525Z,3.22
2023-03-26T08:42:34.149Z,2.15
2023-03-26T08:45:19.744Z,1.67
2023-03-26T08:48:03.485Z,1.85
2023-03-26T08:51:07.860Z,1.83
2023-03-26T08:54:05.070Z,1.70
2023-03-26T08:56:39.276Z,1.77
2023-03-26T08:59:44.331Z,1.20
2023-03-26T09:02:40.464Z,1.40
2023-03-26T09:05:39.833Z,1.27
2023-03-26T09:08:16.042Z,1.60
2023-03-26T09:10:48.910Z,1.17
2023-03-26T09:13:49.780Z,0.95
2023-03-26T09:16:56.144Z,1.48
2023-03-26T09:19:39.726Z,1.30
2023-03-26T09:22:27.898Z,1.58
2023-03-26T09:24:57.694Z,1.10
2023-03-26T09:28:15.913Z,1.20
2023-03-26T09:31:09.564Z,1.13
2023-03-26T09:34:00.283Z,1.30
2023-03-26T09:36:46.410Z,1.30
2023-03-26T09:39:33.117Z,0.95
2023-03-26T09:42:13.206Z,1.63
2023-03-26T10:17:05.053Z,2.03
2023-03-26T10:19:57.536Z,1.38
2023-03-26T10:22:24.530Z,1.30
2023-03-26T10:25:16.779Z,1.70
2023-03-26T10:27:44.104Z,1.65
2023-03-26T10:30:32.960Z,1.40
2023-03-26T10:33:19.433Z,1.67
2023-03-26T10:35:59.955Z,1.83
2023-03-26T10:38:30.064Z,1.23
2023-03-26T10:41:24.308Z,1.30
2023-03-26T10:44:24.582Z,1.15
2023-03-26T10:47:26.524Z,1.60
2023-03-26T10:50:11.835Z,1.15
2023-03-26T10:52:47.063Z,1.20
2023-03-26T10:55:24.318Z,0.70
2023-03-26T10:57:58.307Z,1.10
2023-03-26T11:00:29.183Z,1.30
2023-03-26T11:03:27.372Z,0.95
2023-03-26T11:06:02.955Z,1.02
2023-03-26T11:08:44.882Z,1.30
2023-03-26T11:11:47.590Z,1.27
2023-03-26T11:14:37.551Z,1.60
2023-03-26T11:17:39.317Z,0.70
2023-03-26T11:20:23.361Z,0.73
2023-03-26T11:23:08.085Z,0.73
2023-03-26T11:25:44.062Z,0.77
2023-03-26T11:29:03.827Z,0.70
2023-03-26T11:31:51.247Z,0.90
2023-03-26T11:34:23.518Z,1.00
2023-03-26T11:36:55.920Z,0.65
2023-03-26T11:39:47.972Z,0.88
2023-03-26T11:42:17.527Z,0.93
2023-03-26T11:45:03.256Z,0.50
2023-03-26T11:47:38.814Z,0.70
2023-03-26T11:50:08.462Z,1.00
2023-03-26T11:52:36.174Z,0.98
2023-03-26T11:55:03.433Z,0.93
2023-03-26T11:57:34.782Z,0.85
2023-03-26T12:00:18.125Z,0.90
2023-03-26T12:02:47.585Z,0.80
2023-03-26T12:05:18.479Z,0.80
2023-03-26T12:07:51.281Z,0.80
2023-03-26T12:10:26.142Z,0.77
2023-03-26T12:12:57.177Z,1.10
2023-03-26T12:15:25.543Z,0.98
2023-03-26T12:17:57.142Z,0.93
2023-03-26T12:20:25.047Z,0.70
2023-03-26T12:22:59.587Z,0.85
2023-03-26T12:25:39.211Z,0.75
2023-03-26T12:28:15.868Z,0.82
2023-03-26T12:30:58.891Z,0.98
2023-03-26T12:33:29.763Z,0.88
2023-03-26T12:36:01.162Z,0.90
2023-03-26T12:38:33.812Z,0.85
2023-03-26T12:43:19.790Z,0.93
2023-03-26T12:44:56.340Z,0.70
2023-03-26T12:47:57.980Z,0.70
2023-03-26T12:50:06.304Z,1.08
2023-03-26T12:52:42.999Z,1.00
2023-03-26T12:55:22.111Z,1.08
2023-03-26T12:58:24.325Z,0.70
2023-03-26T13:00:57.586Z,0.98
2023-03-26T13:03:51.178Z,1.58
2023-03-26T13:06:59.871Z,0.95
2023-03-26T13:09:56.996Z,1.25
2023-03-26T13:12:42.256Z,1.30
2023-03-26T13:15:24.430Z,1.00
2023-03-26T13:18:00.542Z,1.08
2023-03-26T13:20:48.024Z,1.15
2023-03-26T13:23:34.625Z,0.90
2023-03-26T13:26:18.592Z,1.02
2023-03-26T13:29:00.455Z,1.00
2023-03-26T13:31:44.336Z,1.33
2023-03-26T13:34:19.371Z,1.10
2023-03-26T13:36:58.531Z,0.95
2023-03-26T13:39:50.312Z,1.00
2023-03-26T13:42:39.474Z,1.15
2023-03-26T13:45:27.679Z,1.40
2023-03-26T13:47:57.734Z,1.25
2023-03-26T13:50:31.476Z,0.95
2023-03-26T13:53:24.388Z,1.02
2023-03-26T13:55:57.119Z,1.10
2023-03-26T13:58:43.272Z,1.00
2023-03-26T14:01:34.926Z,1.10
2023-03-26T14:04:24.873Z,1.30
2023-03-26T14:07:18.201Z,1.33
2023-03-26T14:10:24.072Z,1.02
2023-03-26T14:12:54.130Z,0.88
2023-03-26T14:15:50.070Z,0.95
2023-03-26T14:18:37.964Z,1.00
2023-03-26T14:22:12.361Z,1.00
2023-03-26T14:24:51.827Z,0.88
2023-03-26T14:27:28.426Z,0.98
2023-03-26T14:49:10.131Z,1.30
2023-03-26T14:52:01.497Z,0.95
2023-03-26T14:54:31.886Z,1.70
2023-03-26T14:57:13.963Z,1.02
2023-03-26T15:00:06.874Z,1.00
2023-03-26T15:03:11.247Z,1.38
2023-03-26T15:06:15.457Z,1.00
2023-03-26T15:09:13.360Z,1.10
2023-03-26T15:11:51.959Z,0.90
2023-03-26T15:14:40.379Z,1.10
2023-03-26T15:17:10.879Z,1.00
2023-03-26T15:20:23.425Z,1.40
2023-03-26T15:23:09.928Z,0.98
2023-03-26T15:25:58.051Z,1.20
2023-03-26T15:28:42.990Z,0.85
2023-03-26T15:31:41.154Z,0.88
2023-03-26T15:34:30.508Z,0.95
2023-03-26T15:38:06.918Z,0.70
2023-03-26T15:40:49.274Z,0.80
2023-03-26T15:43:20.209Z,0.90
2023-03-26T15:45:54.100Z,0.80
2023-03-26T15:48:36.710Z,1.05
2023-03-26T15:51:22.013Z,0.90
2023-03-26T15:54:04.013Z,1.33
2023-03-26T15:56:56.826Z,1.20
2023-03-26T15:59:26.830Z,1.13
2023-03-26T16:02:39.126Z,1.20
2023-03-26T16:05:45.838Z,1.17
2023-03-26T16:08:19.065Z,1.10
2023-03-26T16:10:56.198Z,1.42
2023-03-26T16:13:28.000Z,1.63
2023-03-26T16:15:58.303Z,1.42
2023-03-26T16:18:30.017Z,1.60
2023-03-26T16:21:30.571Z,2.08
2023-03-26T16:24:08.219Z,2.53
2023-03-26T16:26:44.772Z,2.60
2023-03-26T16:29:14.608Z,2.75
2023-03-26T16:32:28.676Z,2.80
2023-03-26T16:35:00.387Z,2.78
2023-03-26T16:37:36.717Z,3.63
2023-03-26T16:40:22.546Z,2.85
2023-03-26T16:43:35.780Z,2.63
2023-03-26T16:46:27.608Z,2.20
2023-03-26T16:49:09.728Z,1.67
2023-03-26T16:51:39.865Z,1.80
2023-03-26T16:54:13.536Z,2.17
2023-03-26T16:56:53.457Z,2.00
2023-03-26T16:59:38.818Z,1.45
2023-03-26T17:02:23.294Z,2.08
2023-03-26T17:04:59.405Z,2.15
2023-03-26T17:07:47.629Z,1.70
2023-03-26T17:10:31.218Z,1.80
2023-03-26T17:13:01.056Z,1.85
2023-03-26T17:15:48.475Z,1.65
2023-03-26T17:19:24.594Z,1.88
2023-03-26T17:22:13.983Z,2.08
2023-03-26T17:24:54.388Z,1.38
2023-03-26T17:28:10.403Z,2.40
2023-03-26T17:30:52.723Z,1.92
2023-03-26T17:33:25.702Z,1.92
2023-03-26T17:36:12.788Z,2.22
2023-03-26T17:41:15.820Z,2.35
2023-03-26T17:43:47.459Z,2.42
2023-03-26T17:46:48.327Z,2.80
2023-03-26T17:49:23.230Z,2.38
2023-03-26T17:52:02.433Z,2.00
2023-03-26T17:54:44.391Z,2.38
2023-03-26T17:57:17.981Z,1.92
2023-03-26T17:59:46.654Z,2.03
2023-03-26T18:02:21.086Z,2.42
2023-03-26T18:04:53.526Z,2.10
2023-03-26T18:07:44.198Z,2.67
2023-03-26T18:10:41.359Z,2.00
2023-03-26T18:13:31.374Z,1.70
2023-03-26T18:16:14.866Z,1.73
2023-03-26T18:19:19.204Z,1.42
2023-03-26T18:21:50.502Z,1.73
2023-03-26T18:24:27.632Z,1.55
2023-03-26T18:27:08.208Z,1.60
2023-03-26T18:29:37.605Z,1.80
2023-03-26T18:32:10.509Z,1.60
2023-03-26T18:34:46.345Z,1.40
2023-03-26T18:37:23.272Z,1.08
2023-03-26T18:40:19.086Z,1.50
2023-03-26T18:42:52.389Z,1.42
2023-03-26T18:45:39.821Z,1.42
2023-03-26T18:48:13.997Z,1.50
2023-03-26T18:50:42.196Z,1.40
2023-03-26T18:53:17.345Z,1.48
2023-03-26T18:55:44.777Z,2.10
2023-03-26T18:58:33.491Z,1.98
2023-03-26T19:01:04.073Z,1.98
2023-03-26T19:03:35.787Z,2.30
2023-03-26T19:06:08.434Z,2.28
2023-03-26T19:08:38.972Z,2.47
2023-03-26T19:11:08.380Z,2.05
2023-03-26T19:13:38.268Z,2.42
2023-03-26T19:16:17.874Z,2.50
2023-03-26T19:18:45.065Z,2.55
2023-03-26T19:21:14.844Z,2.20
2023-03-26T19:23:42.259Z,1.88
2023-03-26T19:26:11.499Z,1.98
2023-03-26T19:28:42.145Z,2.17
2023-03-26T19:31:26.002Z,2.10
2023-03-26T19:34:26.175Z,2.03
2023-03-26T19:37:01.836Z,1.98
2023-03-26T19:39:42.788Z,2.67
2023-03-26T19:42:26.687Z,2.67
2023-03-26T19:44:54.333Z,2.20
2023-03-26T19:47:35.545Z,2.25
2023-03-26T19:50:28.113Z,1.73
2023-03-26T19:53:17.866Z,1.60
2023-03-26T19:55:59.484Z,1.58
2023-03-26T19:58:27.384Z,1.77
2023-03-26T20:00:56.555Z,1.88
2023-03-26T20:03:46.429Z,1.50
2023-03-26T20:06:16.846Z,1.63
2023-03-26T20:08:44.234Z,1.98
2023-03-26T20:11:21.249Z,2.47
2023-03-26T20:13:49.416Z,2.05
2023-03-26T20:16:27.210Z,1.85
2023-03-26T20:18:57.378Z,1.77
2023-03-26T20:21:25.694Z,1.60
2023-03-26T20:23:56.271Z,2.20
2023-03-26T20:27:33.293Z,1.90
2023-03-26T20:30:00.372Z,1.45
2023-03-26T20:32:27.543Z,2.00
2023-03-26T20:34:55.063Z,1.83
2023-03-26T20:37:22.316Z,2.05
2023-03-26T20:39:49.288Z,2.10
2023-03-26T20:42:16.655Z,1.75
2023-03-26T20:44:43.714Z,2.08
2023-03-26T20:47:11.736Z,1.65
2023-03-26T20:49:39.016Z,1.67
2023-03-26T20:52:06.364Z,1.70
2023-03-26T20:54:33.583Z,1.50
2023-03-26T20:57:00.656Z,1.48
2023-03-26T20:59:28.397Z,1.70
2023-03-26T21:01:58.153Z,1.80
2023-03-26T21:04:26.408Z,2.00
2023-03-26T21:07:00.272Z,1.70
2023-03-26T21:09:34.361Z,1.98
2023-03-26T21:12:57.135Z,1.98
2023-03-26T21:15:47.271Z,1.50
2023-03-26T21:18:14.636Z,1.33
2023-03-26T21:20:44.957Z,1.30
2023-03-26T21:23:32.372Z,1.40
2023-03-26T21:26:12.290Z,1.50
2023-03-26T21:28:48.456Z,1.52
2023-03-26T21:31:22.280Z,1.05
2023-03-26T21:33:50.390Z,1.27
2023-03-26T21:36:20.034Z,1.08
2023-03-26T21:38:47.441Z,1.35
2023-03-26T21:41:46.970Z,0.98
2023-03-26T21:44:18.461Z,1.20
2023-03-26T21:46:47.486Z,1.15
2023-03-26T21:49:17.116Z,0.60
2023-03-26T21:51:45.245Z,1.05
2023-03-26T21:55:08.524Z,1.10
2023-03-26T21:58:25.663Z,1.40
2023-03-26T22:01:32.087Z,1.83
2023-03-26T22:04:21.468Z,2.13
2023-03-26T22:07:14.910Z,2.30
2023-03-26T22:09:43.592Z,2.13
2023-03-26T22:12:11.290Z,2.45
2023-03-26T22:14:38.880Z,1.80
2023-03-26T22:17:06.008Z,2.70
2023-03-26T22:19:34.578Z,2.33
2023-03-26T22:22:02.799Z,2.35
2023-03-26T22:24:29.991Z,2.30
2023-03-26T22:26:57.199Z,2.53
2023-03-26T22:29:24.274Z,2.20
2023-03-26T22:31:51.300Z,2.13
2023-03-26T22:34:18.359Z,1.73
2023-03-26T22:36:45.968Z,2.08
2023-03-26T22:39:13.106Z,1.92
2023-03-26T22:41:40.233Z,1.92
2023-03-26T22:44:19.102Z,2.13
2023-03-26T22:46:49.617Z,1.92
2023-03-26T22:49:17.548Z,2.17
2023-03-26T22:51:44.503Z,1.83
2023-03-26T22:54:11.533Z,2.05
2023-03-26T22:56:38.609Z,1.77
2023-03-26T22:59:05.660Z,1.45
2023-03-26T23:01:33.037Z,1.25
2023-03-26T23:04:00.051Z,0.95
2023-03-26T23:06:27.084Z,0.70
2023-03-26T23:08:54.908Z,0.90
2023-03-26T23:11:24.850Z,0.85
2023-03-26T23:13:51.963Z,1.20
2023-03-26T23:16:20.018Z,1.13
2023-03-26T23:18:47.399Z,1.00
2023-03-26T23:21:19.651Z,1.10
2023-03-26T23:27:37.697Z,1.30
2023-03-26T23:30:05.791Z,1.20
2023-03-26T23:32:33.243Z,1.13
2023-03-26T23:35:00.298Z,1.20
2023-03-26T23:37:29.564Z,1.42
2023-03-26T23:39:56.579Z,0.85
2023-03-26T23:42:55.479Z,1.10
2023-03-26T23:45:22.726Z,0.70
2023-03-26T23:47:49.842Z,0.88
2023-03-26T23:50:16.964Z,0.90
2023-03-26T23:52:45.585Z,1.05
2023-03-26T23:55:12.642Z,1.33
2023-03-26T23:57:40.703Z,0.90
